sensor_id;sensor_type;location;lat;lon;timestamp;P1;durP1;ratioP1;P2;durP2;ratioP2
21862;SDS011;11096;51.338;12.524;2023-08-06T00:00:45;7.80;;;4.88;;
21862;SDS011;11096;51.338;12.524;2023-08-06T00:03:10;8.30;;;4.93;;
21862;SDS011;11096;51.338;12.524;2023-08-06T00:05:35;6.25;;;4.70;;
21862;SDS011;11096;51.338;12.524;2023-08-06T00:08:01;5.50;;;4.72;;
21862;SDS011;11096;51.338;12.524;2023-08-06T00:10:27;8.52;;;5.07;;
21862;SDS011;11096;51.338;12.524;2023-08-06T00:12:52;8.68;;;5.32;;
21862;SDS011;11096;51.338;12.524;2023-08-06T00:15:18;8.00;;;5.45;;
21862;SDS011;11096;51.338;12.524;2023-08-06T00:17:44;6.80;;;5.50;;
21862;SDS011;11096;51.338;12.524;2023-08-06T00:20:09;9.25;;;6.43;;
21862;SDS011;11096;51.338;12.524;2023-08-06T00:22:35;10.10;;;6.13;;
21862;SDS011;11096;51.338;12.524;2023-08-06T00:25:02;9.88;;;5.75;;
21862;SDS011;11096;51.338;12.524;2023-08-06T00:27:28;7.95;;;5.60;;
21862;SDS011;11096;51.338;12.524;2023-08-06T00:29:54;9.45;;;5.53;;
21862;SDS011;11096;51.338;12.524;2023-08-06T00:32:19;9.00;;;5.43;;
21862;SDS011;11096;51.338;12.524;2023-08-06T00:34:46;9.25;;;5.43;;
21862;SDS011;11096;51.338;12.524;2023-08-06T00:37:14;6.13;;;5.28;;
21862;SDS011;11096;51.338;12.524;2023-08-06T00:39:39;11.05;;;5.28;;
21862;SDS011;11096;51.338;12.524;2023-08-06T00:42:05;6.90;;;5.15;;
21862;SDS011;11096;51.338;12.524;2023-08-06T00:44:30;10.73;;;5.68;;
21862;SDS011;11096;51.338;12.524;2023-08-06T00:46:56;9.45;;;5.68;;
21862;SDS011;11096;51.338;12.524;2023-08-06T00:49:21;13.85;;;6.32;;
21862;SDS011;11096;51.338;12.524;2023-08-06T00:51:47;9.25;;;5.70;;
21862;SDS011;11096;51.338;12.524;2023-08-06T00:54:12;11.35;;;5.57;;
21862;SDS011;11096;51.338;12.524;2023-08-06T00:56:38;8.25;;;5.90;;
21862;SDS011;11096;51.338;12.524;2023-08-06T00:59:06;7.13;;;5.60;;
21862;SDS011;11096;51.338;12.524;2023-08-06T01:01:31;10.73;;;5.78;;
21862;SDS011;11096;51.338;12.524;2023-08-06T01:03:57;10.25;;;6.20;;
21862;SDS011;11096;51.338;12.524;2023-08-06T01:06:35;12.10;;;5.82;;
21862;SDS011;11096;51.338;12.524;2023-08-06T01:17:23;12.10;;;6.43;;
21862;SDS011;11096;51.338;12.524;2023-08-06T01:19:49;10.98;;;6.93;;
21862;SDS011;11096;51.338;12.524;2023-08-06T01:22:14;8.65;;;6.43;;
21862;SDS011;11096;51.338;12.524;2023-08-06T01:24:40;7.20;;;5.97;;
21862;SDS011;11096;51.338;12.524;2023-08-06T01:27:13;8.93;;;6.70;;
21862;SDS011;11096;51.338;12.524;2023-08-06T01:29:47;11.43;;;7.30;;
21862;SDS011;11096;51.338;12.524;2023-08-06T01:32:17;11.43;;;7.22;;
21862;SDS011;11096;51.338;12.524;2023-08-06T01:34:45;7.28;;;6.55;;
21862;SDS011;11096;51.338;12.524;2023-08-06T01:37:13;11.98;;;6.28;;
21862;SDS011;11096;51.338;12.524;2023-08-06T01:39:40;9.98;;;6.57;;
21862;SDS011;11096;51.338;12.524;2023-08-06T01:42:07;10.73;;;6.68;;
21862;SDS011;11096;51.338;12.524;2023-08-06T01:44:33;10.73;;;6.47;;
21862;SDS011;11096;51.338;12.524;2023-08-06T01:46:58;11.15;;;7.20;;
21862;SDS011;11096;51.338;12.524;2023-08-06T01:49:24;13.07;;;6.60;;
21862;SDS011;11096;51.338;12.524;2023-08-06T01:51:49;14.07;;;6.97;;
21862;SDS011;11096;51.338;12.524;2023-08-06T01:54:15;13.40;;;7.05;;
21862;SDS011;11096;51.338;12.524;2023-08-06T01:56:40;11.93;;;7.72;;
21862;SDS011;11096;51.338;12.524;2023-08-06T01:59:06;10.48;;;6.88;;
21862;SDS011;11096;51.338;12.524;2023-08-06T02:01:31;21.27;;;8.68;;
21862;SDS011;11096;51.338;12.524;2023-08-06T02:03:56;11.75;;;7.35;;
21862;SDS011;11096;51.338;12.524;2023-08-06T02:06:22;8.98;;;7.03;;
21862;SDS011;11096;51.338;12.524;2023-08-06T02:08:47;11.00;;;6.65;;
21862;SDS011;11096;51.338;12.524;2023-08-06T02:11:12;12.00;;;7.10;;
21862;SDS011;11096;51.338;12.524;2023-08-06T02:13:38;9.25;;;6.78;;
21862;SDS011;11096;51.338;12.524;2023-08-06T02:16:03;12.73;;;7.15;;
21862;SDS011;11096;51.338;12.524;2023-08-06T02:18:32;10.25;;;7.03;;
21862;SDS011;11096;51.338;12.524;2023-08-06T02:20:58;12.15;;;6.72;;
21862;SDS011;11096;51.338;12.524;2023-08-06T02:23:24;9.80;;;6.78;;
21862;SDS011;11096;51.338;12.524;2023-08-06T02:26:00;8.15;;;6.63;;
21862;SDS011;11096;51.338;12.524;2023-08-06T02:28:27;10.35;;;6.10;;
21862;SDS011;11096;51.338;12.524;2023-08-06T02:30:53;8.43;;;7.03;;
21862;SDS011;11096;51.338;12.524;2023-08-06T02:33:19;11.85;;;7.03;;
21862;SDS011;11096;51.338;12.524;2023-08-06T02:35:44;9.43;;;6.90;;
21862;SDS011;11096;51.338;12.524;2023-08-06T02:38:10;7.60;;;6.65;;
21862;SDS011;11096;51.338;12.524;2023-08-06T02:40:35;11.82;;;6.80;;
21862;SDS011;11096;51.338;12.524;2023-08-06T02:43:00;9.65;;;6.82;;
21862;SDS011;11096;51.338;12.524;2023-08-06T02:45:26;7.93;;;6.82;;
21862;SDS011;11096;51.338;12.524;2023-08-06T02:47:51;11.10;;;7.32;;
21862;SDS011;11096;51.338;12.524;2023-08-06T02:50:17;9.98;;;7.15;;
21862;SDS011;11096;51.338;12.524;2023-08-06T02:52:42;12.85;;;7.60;;
21862;SDS011;11096;51.338;12.524;2023-08-06T02:55:07;12.65;;;7.30;;
21862;SDS011;11096;51.338;12.524;2023-08-06T02:57:33;14.63;;;7.85;;
21862;SDS011;11096;51.338;12.524;2023-08-06T02:59:58;12.60;;;7.68;;
21862;SDS011;11096;51.338;12.524;2023-08-06T03:02:23;10.20;;;7.30;;
21862;SDS011;11096;51.338;12.524;2023-08-06T03:04:49;9.23;;;6.68;;
21862;SDS011;11096;51.338;12.524;2023-08-06T03:07:14;10.45;;;7.18;;
21862;SDS011;11096;51.338;12.524;2023-08-06T03:09:40;11.70;;;7.32;;
21862;SDS011;11096;51.338;12.524;2023-08-06T03:12:05;10.25;;;7.15;;
21862;SDS011;11096;51.338;12.524;2023-08-06T03:14:31;9.00;;;7.13;;
21862;SDS011;11096;51.338;12.524;2023-08-06T03:16:56;10.55;;;7.28;;
21862;SDS011;11096;51.338;12.524;2023-08-06T03:19:22;10.13;;;6.80;;
21862;SDS011;11096;51.338;12.524;2023-08-06T03:21:47;12.77;;;6.80;;
21862;SDS011;11096;51.338;12.524;2023-08-06T03:24:13;8.50;;;6.65;;
21862;SDS011;11096;51.338;12.524;2023-08-06T03:26:39;9.98;;;6.93;;
21862;SDS011;11096;51.338;12.524;2023-08-06T03:29:04;8.90;;;6.72;;
21862;SDS011;11096;51.338;12.524;2023-08-06T03:31:29;13.15;;;8.20;;
21862;SDS011;11096;51.338;12.524;2023-08-06T03:33:55;10.32;;;6.90;;
21862;SDS011;11096;51.338;12.524;2023-08-06T03:36:20;8.82;;;6.57;;
21862;SDS011;11096;51.338;12.524;2023-08-06T03:38:46;12.38;;;7.53;;
21862;SDS011;11096;51.338;12.524;2023-08-06T03:41:11;10.35;;;8.10;;
21862;SDS011;11096;51.338;12.524;2023-08-06T03:43:36;9.00;;;7.50;;
21862;SDS011;11096;51.338;12.524;2023-08-06T03:46:02;9.32;;;7.60;;
21862;SDS011;11096;51.338;12.524;2023-08-06T03:48:27;11.75;;;8.55;;
21862;SDS011;11096;51.338;12.524;2023-08-06T03:50:53;13.10;;;8.57;;
21862;SDS011;11096;51.338;12.524;2023-08-06T03:53:18;11.27;;;8.57;;
21862;SDS011;11096;51.338;12.524;2023-08-06T03:55:43;9.60;;;8.38;;
21862;SDS011;11096;51.338;12.524;2023-08-06T03:58:09;11.10;;;8.68;;
21862;SDS011;11096;51.338;12.524;2023-08-06T04:00:34;10.95;;;8.48;;
21862;SDS011;11096;51.338;12.524;2023-08-06T04:02:59;10.25;;;8.20;;
21862;SDS011;11096;51.338;12.524;2023-08-06T04:05:25;11.05;;;9.20;;
21862;SDS011;11096;51.338;12.524;2023-08-06T04:07:50;10.65;;;7.85;;
21862;SDS011;11096;51.338;12.524;2023-08-06T04:10:16;9.80;;;8.07;;
21862;SDS011;11096;51.338;12.524;2023-08-06T04:12:41;12.55;;;8.75;;
21862;SDS011;11096;51.338;12.524;2023-08-06T04:15:06;11.18;;;9.23;;
21862;SDS011;11096;51.338;12.524;2023-08-06T04:17:32;11.40;;;9.45;;
21862;SDS011;11096;51.338;12.524;2023-08-06T04:19:57;15.27;;;8.93;;
21862;SDS011;11096;51.338;12.524;2023-08-06T04:22:24;11.07;;;8.95;;
21862;SDS011;11096;51.338;12.524;2023-08-06T04:24:49;9.75;;;8.75;;
21862;SDS011;11096;51.338;12.524;2023-08-06T04:27:15;13.63;;;9.23;;
21862;SDS011;11096;51.338;12.524;2023-08-06T04:29:41;11.07;;;9.68;;
21862;SDS011;11096;51.338;12.524;2023-08-06T04:32:08;10.85;;;8.52;;
21862;SDS011;11096;51.338;12.524;2023-08-06T04:34:35;10.50;;;8.75;;
21862;SDS011;11096;51.338;12.524;2023-08-06T04:37:01;9.95;;;8.55;;
21862;SDS011;11096;51.338;12.524;2023-08-06T04:39:27;13.35;;;8.40;;
21862;SDS011;11096;51.338;12.524;2023-08-06T04:41:53;13.55;;;8.55;;
21862;SDS011;11096;51.338;12.524;2023-08-06T04:44:18;10.00;;;7.65;;
21862;SDS011;11096;51.338;12.524;2023-08-06T04:46:44;11.10;;;8.10;;
21862;SDS011;11096;51.338;12.524;2023-08-06T04:49:09;10.25;;;7.78;;
21862;SDS011;11096;51.338;12.524;2023-08-06T04:51:35;11.23;;;7.65;;
21862;SDS011;11096;51.338;12.524;2023-08-06T04:54:00;11.13;;;7.57;;
21862;SDS011;11096;51.338;12.524;2023-08-06T04:56:25;10.52;;;7.85;;
21862;SDS011;11096;51.338;12.524;2023-08-06T04:58:51;9.75;;;7.38;;
21862;SDS011;11096;51.338;12.524;2023-08-06T05:01:16;12.55;;;8.75;;
21862;SDS011;11096;51.338;12.524;2023-08-06T05:03:42;11.82;;;7.85;;
21862;SDS011;11096;51.338;12.524;2023-08-06T05:06:07;8.77;;;7.18;;
21862;SDS011;11096;51.338;12.524;2023-08-06T05:08:33;10.40;;;7.35;;
21862;SDS011;11096;51.338;12.524;2023-08-06T05:10:58;12.98;;;7.13;;
21862;SDS011;11096;51.338;12.524;2023-08-06T05:13:24;8.73;;;6.72;;
21862;SDS011;11096;51.338;12.524;2023-08-06T05:15:50;7.95;;;6.75;;
21862;SDS011;11096;51.338;12.524;2023-08-06T05:18:15;7.05;;;5.70;;
21862;SDS011;11096;51.338;12.524;2023-08-06T05:20:41;12.98;;;5.70;;
21862;SDS011;11096;51.338;12.524;2023-08-06T05:23:07;9.77;;;5.50;;
21862;SDS011;11096;51.338;12.524;2023-08-06T05:25:36;5.75;;;5.20;;
21862;SDS011;11096;51.338;12.524;2023-08-06T05:28:02;8.05;;;5.10;;
21862;SDS011;11096;51.338;12.524;2023-08-06T05:30:28;5.63;;;4.28;;
21862;SDS011;11096;51.338;12.524;2023-08-06T05:32:54;7.20;;;4.38;;
21862;SDS011;11096;51.338;12.524;2023-08-06T05:35:20;5.03;;;4.18;;
21862;SDS011;11096;51.338;12.524;2023-08-06T05:37:46;5.90;;;4.68;;
21862;SDS011;11096;51.338;12.524;2023-08-06T05:40:12;4.20;;;3.63;;
21862;SDS011;11096;51.338;12.524;2023-08-06T05:42:37;6.78;;;3.50;;
21862;SDS011;11096;51.338;12.524;2023-08-06T05:45:03;4.43;;;3.50;;
21862;SDS011;11096;51.338;12.524;2023-08-06T05:47:28;4.97;;;3.83;;
21862;SDS011;11096;51.338;12.524;2023-08-06T05:49:54;3.55;;;3.00;;
21862;SDS011;11096;51.338;12.524;2023-08-06T05:52:19;3.70;;;3.35;;
21862;SDS011;11096;51.338;12.524;2023-08-06T05:54:45;4.65;;;3.05;;
21862;SDS011;11096;51.338;12.524;2023-08-06T05:57:10;5.82;;;3.40;;
21862;SDS011;11096;51.338;12.524;2023-08-06T05:59:35;8.38;;;3.60;;
21862;SDS011;11096;51.338;12.524;2023-08-06T06:02:01;4.43;;;3.25;;
21862;SDS011;11096;51.338;12.524;2023-08-06T06:04:26;3.25;;;2.92;;
21862;SDS011;11096;51.338;12.524;2023-08-06T06:06:52;6.07;;;3.63;;
21862;SDS011;11096;51.338;12.524;2023-08-06T06:09:17;3.58;;;2.97;;
21862;SDS011;11096;51.338;12.524;2023-08-06T06:11:42;4.47;;;2.90;;
21862;SDS011;11096;51.338;12.524;2023-08-06T06:14:08;4.88;;;3.63;;
21862;SDS011;11096;51.338;12.524;2023-08-06T06:16:33;3.83;;;2.75;;
21862;SDS011;11096;51.338;12.524;2023-08-06T06:18:59;5.25;;;3.20;;
21862;SDS011;11096;51.338;12.524;2023-08-06T06:21:25;6.07;;;3.50;;
21862;SDS011;11096;51.338;12.524;2023-08-06T06:23:50;4.45;;;3.08;;
21862;SDS011;11096;51.338;12.524;2023-08-06T06:26:16;4.43;;;2.80;;
21862;SDS011;11096;51.338;12.524;2023-08-06T06:28:43;4.13;;;3.20;;
21862;SDS011;11096;51.338;12.524;2023-08-06T06:31:08;4.38;;;3.00;;
21862;SDS011;11096;51.338;12.524;2023-08-06T06:33:34;4.25;;;3.20;;
21862;SDS011;11096;51.338;12.524;2023-08-06T06:36:00;8.35;;;3.28;;
21862;SDS011;11096;51.338;12.524;2023-08-06T06:38:25;5.05;;;3.28;;
21862;SDS011;11096;51.338;12.524;2023-08-06T06:40:56;5.45;;;2.80;;
21862;SDS011;11096;51.338;12.524;2023-08-06T06:43:22;4.10;;;2.83;;
21862;SDS011;11096;51.338;12.524;2023-08-06T06:45:58;3.17;;;2.75;;
21862;SDS011;11096;51.338;12.524;2023-08-06T06:48:28;5.25;;;2.65;;
21862;SDS011;11096;51.338;12.524;2023-08-06T06:50:55;3.05;;;2.58;;
21862;SDS011;11096;51.338;12.524;2023-08-06T06:53:21;3.65;;;2.88;;
21862;SDS011;11096;51.338;12.524;2023-08-06T06:55:52;3.25;;;2.88;;
21862;SDS011;11096;51.338;12.524;2023-08-06T06:58:20;4.22;;;2.28;;
21862;SDS011;11096;51.338;12.524;2023-08-06T07:00:46;3.75;;;2.33;;
21862;SDS011;11096;51.338;12.524;2023-08-06T07:03:13;2.38;;;2.10;;
21862;SDS011;11096;51.338;12.524;2023-08-06T07:05:39;2.80;;;2.33;;
21862;SDS011;11096;51.338;12.524;2023-08-06T07:08:05;2.47;;;1.90;;
21862;SDS011;11096;51.338;12.524;2023-08-06T07:10:30;2.60;;;2.40;;
21862;SDS011;11096;51.338;12.524;2023-08-06T07:12:55;3.05;;;2.13;;
21862;SDS011;11096;51.338;12.524;2023-08-06T07:15:21;2.40;;;1.67;;
21862;SDS011;11096;51.338;12.524;2023-08-06T07:17:46;2.40;;;1.90;;
21862;SDS011;11096;51.338;12.524;2023-08-06T07:20:12;2.40;;;1.90;;
21862;SDS011;11096;51.338;12.524;2023-08-06T07:22:37;9.05;;;2.10;;
21862;SDS011;11096;51.338;12.524;2023-08-06T07:25:02;1.95;;;1.50;;
21862;SDS011;11096;51.338;12.524;2023-08-06T07:27:28;2.22;;;1.70;;
21862;SDS011;11096;51.338;12.524;2023-08-06T07:29:53;2.55;;;1.48;;
21862;SDS011;11096;51.338;12.524;2023-08-06T07:32:19;2.03;;;1.83;;
21862;SDS011;11096;51.338;12.524;2023-08-06T07:34:44;2.08;;;1.88;;
21862;SDS011;11096;51.338;12.524;2023-08-06T07:37:09;3.35;;;1.60;;
21862;SDS011;11096;51.338;12.524;2023-08-06T07:39:35;2.22;;;1.75;;
21862;SDS011;11096;51.338;12.524;2023-08-06T07:42:03;1.80;;;1.42;;
21862;SDS011;11096;51.338;12.524;2023-08-06T07:44:30;2.25;;;2.00;;
21862;SDS011;11096;51.338;12.524;2023-08-06T07:46:56;2.42;;;1.52;;
21862;SDS011;11096;51.338;12.524;2023-08-06T07:49:21;3.03;;;1.63;;
21862;SDS011;11096;51.338;12.524;2023-08-06T07:51:47;1.88;;;1.60;;
21862;SDS011;11096;51.338;12.524;2023-08-06T07:54:12;3.72;;;1.42;;
21862;SDS011;11096;51.338;12.524;2023-08-06T07:56:38;1.77;;;1.40;;
21862;SDS011;11096;51.338;12.524;2023-08-06T07:59:03;1.85;;;1.50;;
21862;SDS011;11096;51.338;12.524;2023-08-06T08:01:28;3.60;;;1.40;;
21862;SDS011;11096;51.338;12.524;2023-08-06T08:03:54;1.48;;;1.38;;
21862;SDS011;11096;51.338;12.524;2023-08-06T08:06:19;2.70;;;1.73;;
21862;SDS011;11096;51.338;12.524;2023-08-06T08:08:44;1.48;;;1.35;;
21862;SDS011;11096;51.338;12.524;2023-08-06T08:11:10;2.70;;;1.10;;
21862;SDS011;11096;51.338;12.524;2023-08-06T08:13:35;3.63;;;1.67;;
21862;SDS011;11096;51.338;12.524;2023-08-06T08:16:01;2.67;;;1.38;;
21862;SDS011;11096;51.338;12.524;2023-08-06T08:18:26;2.88;;;1.70;;
21862;SDS011;11096;51.338;12.524;2023-08-06T08:20:52;2.15;;;1.70;;
21862;SDS011;11096;51.338;12.524;2023-08-06T08:23:18;2.95;;;1.60;;
21862;SDS011;11096;51.338;12.524;2023-08-06T08:25:43;3.30;;;1.70;;
21862;SDS011;11096;51.338;12.524;2023-08-06T08:28:08;3.60;;;1.55;;
21862;SDS011;11096;51.338;12.524;2023-08-06T08:30:34;2.25;;;1.70;;
21862;SDS011;11096;51.338;12.524;2023-08-06T08:32:59;3.90;;;1.52;;
21862;SDS011;11096;51.338;12.524;2023-08-06T08:35:25;3.40;;;1.50;;
21862;SDS011;11096;51.338;12.524;2023-08-06T08:37:50;2.25;;;1.75;;
21862;SDS011;11096;51.338;12.524;2023-08-06T08:40:16;2.78;;;1.55;;
21862;SDS011;11096;51.338;12.524;2023-08-06T08:42:42;2.08;;;1.60;;
21862;SDS011;11096;51.338;12.524;2023-08-06T08:45:15;2.13;;;1.63;;
21862;SDS011;11096;51.338;12.524;2023-08-06T08:47:41;1.83;;;1.50;;
21862;SDS011;11096;51.338;12.524;2023-08-06T08:50:08;2.70;;;1.70;;
21862;SDS011;11096;51.338;12.524;2023-08-06T08:52:35;2.33;;;1.70;;
21862;SDS011;11096;51.338;12.524;2023-08-06T08:55:01;1.70;;;1.45;;
21862;SDS011;11096;51.338;12.524;2023-08-06T08:57:27;1.63;;;1.52;;
21862;SDS011;11096;51.338;12.524;2023-08-06T08:59:52;3.15;;;1.42;;
21862;SDS011;11096;51.338;12.524;2023-08-06T09:02:18;2.00;;;1.50;;
21862;SDS011;11096;51.338;12.524;2023-08-06T09:04:46;5.10;;;1.60;;
21862;SDS011;11096;51.338;12.524;2023-08-06T09:07:13;1.45;;;1.33;;
21862;SDS011;11096;51.338;12.524;2023-08-06T09:09:43;4.97;;;1.25;;
21862;SDS011;11096;51.338;12.524;2023-08-06T09:12:11;2.60;;;1.20;;
21862;SDS011;11096;51.338;12.524;2023-08-06T09:14:39;1.38;;;1.25;;
21862;SDS011;11096;51.338;12.524;2023-08-06T09:17:05;3.35;;;1.33;;
21862;SDS011;11096;51.338;12.524;2023-08-06T09:19:31;2.78;;;1.38;;
21862;SDS011;11096;51.338;12.524;2023-08-06T09:21:57;3.17;;;1.30;;
21862;SDS011;11096;51.338;12.524;2023-08-06T09:24:23;1.88;;;1.40;;
21862;SDS011;11096;51.338;12.524;2023-08-06T09:26:49;4.10;;;1.50;;
21862;SDS011;11096;51.338;12.524;2023-08-06T09:29:15;3.20;;;1.55;;
21862;SDS011;11096;51.338;12.524;2023-08-06T09:31:44;3.50;;;1.38;;
21862;SDS011;11096;51.338;12.524;2023-08-06T09:34:17;2.15;;;1.33;;
21862;SDS011;11096;51.338;12.524;2023-08-06T09:36:50;1.63;;;1.52;;
21862;SDS011;11096;51.338;12.524;2023-08-06T09:39:21;1.58;;;1.48;;
21862;SDS011;11096;51.338;12.524;2023-08-06T09:41:59;2.15;;;1.50;;
21862;SDS011;11096;51.338;12.524;2023-08-06T09:44:26;1.55;;;1.45;;
21862;SDS011;11096;51.338;12.524;2023-08-06T09:49:21;2.05;;;1.20;;
21862;SDS011;11096;51.338;12.524;2023-08-06T09:51:50;1.67;;;1.20;;
21862;SDS011;11096;51.338;12.524;2023-08-06T09:54:17;1.73;;;1.20;;
21862;SDS011;11096;51.338;12.524;2023-08-06T09:56:45;2.78;;;1.20;;
21862;SDS011;11096;51.338;12.524;2023-08-06T09:59:13;1.77;;;1.10;;
21862;SDS011;11096;51.338;12.524;2023-08-06T10:01:40;1.25;;;1.15;;
21862;SDS011;11096;51.338;12.524;2023-08-06T10:04:06;2.95;;;1.23;;
21862;SDS011;11096;51.338;12.524;2023-08-06T10:06:37;4.60;;;1.45;;
21862;SDS011;11096;51.338;12.524;2023-08-06T10:09:05;2.25;;;1.52;;
21862;SDS011;11096;51.338;12.524;2023-08-06T10:11:31;2.35;;;1.23;;
21862;SDS011;11096;51.338;12.524;2023-08-06T10:16:44;3.35;;;1.13;;
21862;SDS011;11096;51.338;12.524;2023-08-06T10:19:12;2.47;;;1.60;;
21862;SDS011;11096;51.338;12.524;2023-08-06T10:21:40;2.22;;;1.20;;
21862;SDS011;11096;51.338;12.524;2023-08-06T10:24:09;3.30;;;2.08;;
21862;SDS011;11096;51.338;12.524;2023-08-06T10:26:39;5.53;;;2.13;;
21862;SDS011;11096;51.338;12.524;2023-08-06T10:32:02;1.70;;;1.58;;
21862;SDS011;11096;51.338;12.524;2023-08-06T10:37:21;1.50;;;1.08;;
21862;SDS011;11096;51.338;12.524;2023-08-06T10:39:49;1.52;;;0.93;;
21862;SDS011;11096;51.338;12.524;2023-08-06T10:42:19;3.45;;;1.60;;
21862;SDS011;11096;51.338;12.524;2023-08-06T10:47:40;3.22;;;1.40;;
21862;SDS011;11096;51.338;12.524;2023-08-06T10:50:13;2.65;;;1.27;;
21862;SDS011;11096;51.338;12.524;2023-08-06T10:52:41;2.80;;;1.50;;
21862;SDS011;11096;51.338;12.524;2023-08-06T10:55:07;1.77;;;1.10;;
21862;SDS011;11096;51.338;12.524;2023-08-06T10:57:34;3.38;;;1.92;;
21862;SDS011;11096;51.338;12.524;2023-08-06T10:59:59;1.77;;;1.20;;
21862;SDS011;11096;51.338;12.524;2023-08-06T11:02:25;2.78;;;1.20;;
21862;SDS011;11096;51.338;12.524;2023-08-06T11:04:50;2.13;;;1.30;;
21862;SDS011;11096;51.338;12.524;2023-08-06T11:07:16;1.10;;;1.00;;
21862;SDS011;11096;51.338;12.524;2023-08-06T11:09:41;1.27;;;0.98;;
21862;SDS011;11096;51.338;12.524;2023-08-06T11:12:10;2.75;;;1.25;;
21862;SDS011;11096;51.338;12.524;2023-08-06T11:14:35;2.22;;;1.10;;
21862;SDS011;11096;51.338;12.524;2023-08-06T11:17:01;2.47;;;1.23;;
21862;SDS011;11096;51.338;12.524;2023-08-06T11:19:26;2.22;;;1.08;;
21862;SDS011;11096;51.338;12.524;2023-08-06T11:21:52;1.38;;;0.80;;
21862;SDS011;11096;51.338;12.524;2023-08-06T11:24:17;2.53;;;1.10;;
21862;SDS011;11096;51.338;12.524;2023-08-06T11:26:43;4.25;;;1.10;;
21862;SDS011;11096;51.338;12.524;2023-08-06T11:29:09;1.50;;;0.98;;
21862;SDS011;11096;51.338;12.524;2023-08-06T11:31:35;1.60;;;1.10;;
21862;SDS011;11096;51.338;12.524;2023-08-06T11:34:01;1.00;;;0.85;;
21862;SDS011;11096;51.338;12.524;2023-08-06T11:36:33;1.58;;;1.02;;
21862;SDS011;11096;51.338;12.524;2023-08-06T11:39:01;2.03;;;1.10;;
21862;SDS011;11096;51.338;12.524;2023-08-06T11:41:30;4.07;;;1.10;;
21862;SDS011;11096;51.338;12.524;2023-08-06T11:43:56;0.95;;;0.85;;
21862;SDS011;11096;51.338;12.524;2023-08-06T11:46:21;2.50;;;1.27;;
21862;SDS011;11096;51.338;12.524;2023-08-06T11:48:52;1.40;;;1.00;;
21862;SDS011;11096;51.338;12.524;2023-08-06T11:51:18;3.25;;;1.08;;
21862;SDS011;11096;51.338;12.524;2023-08-06T11:53:48;2.28;;;1.23;;
21862;SDS011;11096;51.338;12.524;2023-08-06T11:56:14;3.88;;;1.13;;
21862;SDS011;11096;51.338;12.524;2023-08-06T11:58:41;2.00;;;1.10;;
21862;SDS011;11096;51.338;12.524;2023-08-06T12:01:07;1.08;;;0.90;;
21862;SDS011;11096;51.338;12.524;2023-08-06T12:03:32;2.38;;;1.05;;
21862;SDS011;11096;51.338;12.524;2023-08-06T12:05:58;1.20;;;0.90;;
21862;SDS011;11096;51.338;12.524;2023-08-06T12:08:26;2.60;;;1.33;;
21862;SDS011;11096;51.338;12.524;2023-08-06T12:10:52;1.20;;;0.98;;
21862;SDS011;11096;51.338;12.524;2023-08-06T12:13:18;2.00;;;1.00;;
21862;SDS011;11096;51.338;12.524;2023-08-06T12:15:44;2.55;;;0.85;;
21862;SDS011;11096;51.338;12.524;2023-08-06T12:18:10;1.77;;;1.08;;
21862;SDS011;11096;51.338;12.524;2023-08-06T12:20:35;3.53;;;0.98;;
21862;SDS011;11096;51.338;12.524;2023-08-06T12:23:01;1.98;;;1.08;;
21862;SDS011;11096;51.338;12.524;2023-08-06T12:25:27;2.03;;;1.08;;
21862;SDS011;11096;51.338;12.524;2023-08-06T12:27:52;2.85;;;1.30;;
21862;SDS011;11096;51.338;12.524;2023-08-06T12:30:17;2.88;;;1.38;;
21862;SDS011;11096;51.338;12.524;2023-08-06T12:32:43;1.30;;;0.77;;
21862;SDS011;11096;51.338;12.524;2023-08-06T12:35:08;1.30;;;0.95;;
21862;SDS011;11096;51.338;12.524;2023-08-06T12:37:34;1.77;;;1.10;;
21862;SDS011;11096;51.338;12.524;2023-08-06T12:40:00;1.02;;;0.68;;
21862;SDS011;11096;51.338;12.524;2023-08-06T12:42:25;1.20;;;0.85;;
21862;SDS011;11096;51.338;12.524;2023-08-06T12:44:51;3.05;;;0.70;;
21862;SDS011;11096;51.338;12.524;2023-08-06T12:47:17;2.70;;;0.73;;
21862;SDS011;11096;51.338;12.524;2023-08-06T12:49:43;1.75;;;0.73;;
21862;SDS011;11096;51.338;12.524;2023-08-06T12:52:09;1.70;;;0.82;;
21862;SDS011;11096;51.338;12.524;2023-08-06T12:54:34;3.90;;;1.00;;
21862;SDS011;11096;51.338;12.524;2023-08-06T12:57:03;2.78;;;1.08;;
21862;SDS011;11096;51.338;12.524;2023-08-06T12:59:29;1.80;;;0.93;;
21862;SDS011;11096;51.338;12.524;2023-08-06T13:01:54;2.22;;;0.90;;
21862;SDS011;11096;51.338;12.524;2023-08-06T13:04:20;1.20;;;0.90;;
21862;SDS011;11096;51.338;12.524;2023-08-06T13:06:45;3.17;;;0.75;;
21862;SDS011;11096;51.338;12.524;2023-08-06T13:09:11;1.30;;;0.80;;
21862;SDS011;11096;51.338;12.524;2023-08-06T13:11:38;1.00;;;0.82;;
21862;SDS011;11096;51.338;12.524;2023-08-06T13:14:05;2.22;;;0.77;;
21862;SDS011;11096;51.338;12.524;2023-08-06T13:16:32;4.28;;;0.73;;
21862;SDS011;11096;51.338;12.524;2023-08-06T13:18:58;2.42;;;0.80;;
21862;SDS011;11096;51.338;12.524;2023-08-06T13:21:23;2.20;;;1.02;;
21862;SDS011;11096;51.338;12.524;2023-08-06T13:23:49;1.58;;;0.95;;
21862;SDS011;11096;51.338;12.524;2023-08-06T13:26:14;1.30;;;1.00;;
21862;SDS011;11096;51.338;12.524;2023-08-06T13:28:41;1.40;;;0.93;;
21862;SDS011;11096;51.338;12.524;2023-08-06T13:31:07;3.35;;;0.98;;
21862;SDS011;11096;51.338;12.524;2023-08-06T13:33:32;3.13;;;0.90;;
21862;SDS011;11096;51.338;12.524;2023-08-06T13:35:58;1.00;;;0.80;;
21862;SDS011;11096;51.338;12.524;2023-08-06T13:38:23;1.52;;;1.13;;
21862;SDS011;11096;51.338;12.524;2023-08-06T13:40:49;2.40;;;1.00;;
21862;SDS011;11096;51.338;12.524;2023-08-06T13:43:14;1.63;;;1.00;;
21862;SDS011;11096;51.338;12.524;2023-08-06T13:45:42;2.97;;;0.90;;
21862;SDS011;11096;51.338;12.524;2023-08-06T13:48:07;1.20;;;0.90;;
21862;SDS011;11096;51.338;12.524;2023-08-06T13:50:33;3.80;;;0.93;;
21862;SDS011;11096;51.338;12.524;2023-08-06T13:52:58;1.48;;;0.85;;
21862;SDS011;11096;51.338;12.524;2023-08-06T13:55:24;1.45;;;1.10;;
21862;SDS011;11096;51.338;12.524;2023-08-06T13:57:49;1.08;;;0.77;;
21862;SDS011;11096;51.338;12.524;2023-08-06T14:00:15;2.75;;;1.33;;
21862;SDS011;11096;51.338;12.524;2023-08-06T14:02:40;3.50;;;1.17;;
21862;SDS011;11096;51.338;12.524;2023-08-06T14:05:06;5.55;;;2.20;;
21862;SDS011;11096;51.338;12.524;2023-08-06T14:07:32;2.72;;;1.80;;
21862;SDS011;11096;51.338;12.524;2023-08-06T14:09:58;3.50;;;0.90;;
21862;SDS011;11096;51.338;12.524;2023-08-06T14:12:23;2.10;;;1.20;;
21862;SDS011;11096;51.338;12.524;2023-08-06T14:14:49;4.22;;;0.93;;
21862;SDS011;11096;51.338;12.524;2023-08-06T14:17:14;1.00;;;0.80;;
21862;SDS011;11096;51.338;12.524;2023-08-06T14:19:40;1.42;;;0.98;;
21862;SDS011;11096;51.338;12.524;2023-08-06T14:22:06;1.42;;;0.70;;
21862;SDS011;11096;51.338;12.524;2023-08-06T14:24:31;1.05;;;0.80;;
21862;SDS011;11096;51.338;12.524;2023-08-06T14:26:56;1.20;;;0.90;;
21862;SDS011;11096;51.338;12.524;2023-08-06T14:29:22;1.00;;;0.73;;
21862;SDS011;11096;51.338;12.524;2023-08-06T14:31:47;1.98;;;0.85;;
21862;SDS011;11096;51.338;12.524;2023-08-06T14:34:13;2.03;;;0.60;;
21862;SDS011;11096;51.338;12.524;2023-08-06T14:36:38;1.35;;;0.80;;
21862;SDS011;11096;51.338;12.524;2023-08-06T14:39:04;2.03;;;0.60;;
21862;SDS011;11096;51.338;12.524;2023-08-06T14:41:29;1.33;;;0.93;;
21862;SDS011;11096;51.338;12.524;2023-08-06T14:43:54;2.45;;;1.05;;
21862;SDS011;11096;51.338;12.524;2023-08-06T14:46:20;1.10;;;0.98;;